createdAt,value
2019-05-03T00:00:51.493Z,0.00
2019-05-03T00:01:49.689Z,0.00
2019-05-03T00:02:49.636Z,0.00
2019-05-03T00:03:49.624Z,0.00
2019-05-03T00:04:51.596Z,0.00
2019-05-03T00:05:49.607Z,0.00
2019-05-03T00:06:49.599Z,0.00
2019-05-03T00:07:49.623Z,0.00
2019-05-03T00:08:49.574Z,0.00
2019-05-03T00:09:49.557Z,0.00
2019-05-03T00:10:51.285Z,0.00
2019-05-03T00:11:49.539Z,0.00
2019-05-03T00:12:49.537Z,0.00
2019-05-03T00:13:49.559Z,0.00
2019-05-03T00:14:49.509Z,0.00
2019-05-03T00:15:49.491Z,0.00
2019-05-03T00:16:49.482Z,0.00
2019-05-03T00:17:49.478Z,0.00
2019-05-03T00:18:49.507Z,0.00
2019-05-03T00:19:49.446Z,0.00
2019-05-03T00:20:49.436Z,0.00
2019-05-03T00:21:49.423Z,0.00
2019-05-03T00:22:49.420Z,0.00
2019-05-03T00:23:49.446Z,0.00
2019-05-03T00:25:02.295Z,0.00
2019-05-03T00:25:52.212Z,0.00
2019-05-03T00:26:49.374Z,0.00
2019-05-03T00:27:49.356Z,0.00
2019-05-03T00:28:49.408Z,0.00
2019-05-03T00:29:49.339Z,0.00
2019-05-03T00:30:49.323Z,0.00
2019-05-03T00:31:49.312Z,0.00
2019-05-03T00:32:49.301Z,0.00
2019-05-03T00:33:49.289Z,0.00
2019-05-03T00:34:49.329Z,0.00
2019-05-03T00:35:49.278Z,0.00
2019-05-03T00:36:49.259Z,0.00
2019-05-03T00:37:49.250Z,0.00
2019-05-03T00:38:49.272Z,0.00
2019-05-03T00:39:49.222Z,0.00
2019-05-03T00:40:49.257Z,0.00
2019-05-03T00:41:49.756Z,0.00
2019-05-03T00:42:49.189Z,0.00
2019-05-03T00:43:49.181Z,0.00
2019-05-03T00:44:49.211Z,0.00
2019-05-03T00:45:49.154Z,0.00
2019-05-03T00:46:49.143Z,0.00
2019-05-03T00:47:49.140Z,0.00
2019-05-03T00:48:49.118Z,0.00
2019-05-03T00:49:49.108Z,0.00
2019-05-03T00:50:49.145Z,0.00
2019-05-03T00:51:49.084Z,0.00
2019-05-03T00:52:49.074Z,0.00
2019-05-03T00:53:49.063Z,0.00
2019-05-03T00:54:49.051Z,0.00
2019-05-03T00:55:49.066Z,0.00
2019-05-03T00:56:49.078Z,0.00
2019-05-03T00:57:49.025Z,0.00
2019-05-03T00:58:49.016Z,0.00
2019-05-03T00:59:48.994Z,0.00
2019-05-03T01:00:48.984Z,0.00
2019-05-03T01:01:49.013Z,0.00
2019-05-03T01:02:48.968Z,0.00
2019-05-03T01:03:48.950Z,0.00
2019-05-03T01:04:48.979Z,0.00
2019-05-03T01:05:48.927Z,0.00
2019-05-03T01:06:48.917Z,0.00
2019-05-03T01:07:48.904Z,0.00
2019-05-03T01:08:48.900Z,0.00
2019-05-03T01:09:48.931Z,0.00
2019-05-03T01:10:48.876Z,0.00
2019-05-03T01:11:48.862Z,0.00
2019-05-03T01:12:48.902Z,0.00
2019-05-03T01:13:48.838Z,0.00
2019-05-03T01:14:48.837Z,0.00
2019-05-03T01:15:48.818Z,0.00
2019-05-03T01:16:48.848Z,0.00
2019-05-03T01:17:48.795Z,0.00
2019-05-03T01:18:48.786Z,0.00
2019-05-03T01:19:48.810Z,0.00
2019-05-03T01:20:48.804Z,0.00
2019-05-03T01:21:48.757Z,0.00
2019-05-03T01:22:48.756Z,0.00
2019-05-03T01:23:48.791Z,0.00
2019-05-03T01:24:48.720Z,0.00
2019-05-03T01:25:48.705Z,0.00
2019-05-03T01:26:48.696Z,0.00
2019-05-03T01:27:48.687Z,0.00
2019-05-03T01:28:48.670Z,0.00
2019-05-03T01:29:48.713Z,0.00
2019-05-03T01:30:48.653Z,0.00
2019-05-03T01:31:48.642Z,0.00
2019-05-03T01:32:48.626Z,0.00
2019-05-03T01:33:48.622Z,0.00
2019-05-03T01:34:48.647Z,0.00
2019-05-03T01:35:48.593Z,0.00
2019-05-03T01:36:48.589Z,0.00
2019-05-03T01:37:48.570Z,0.00
2019-05-03T01:38:48.600Z,0.00
2019-05-03T01:39:48.551Z,0.00
2019-05-03T01:40:48.536Z,0.00
2019-05-03T01:41:48.579Z,0.00
2019-05-03T01:42:48.525Z,0.00
2019-05-03T01:43:48.548Z,0.00
2019-05-03T01:44:48.491Z,0.00
2019-05-03T01:45:48.489Z,0.00
2019-05-03T01:46:48.469Z,0.00
2019-05-03T01:47:48.514Z,0.00
2019-05-03T01:48:48.448Z,0.00
2019-05-03T01:49:48.483Z,0.00
2019-05-03T01:50:48.430Z,0.00
2019-05-03T01:51:48.432Z,0.00
2019-05-03T01:52:48.403Z,0.00
2019-05-03T01:53:48.395Z,0.00
2019-05-03T01:54:48.421Z,0.00
2019-05-03T01:55:48.374Z,0.00
2019-05-03T01:56:56.809Z,0.00
2019-05-03T01:57:49.346Z,0.00
2019-05-03T01:58:48.345Z,0.00
2019-05-03T01:59:48.362Z,0.00
2019-05-03T02:00:48.316Z,0.00
2019-05-03T02:01:48.305Z,0.00
2019-05-03T02:02:48.300Z,0.00
2019-05-03T02:03:48.322Z,0.00
2019-05-03T02:04:48.274Z,0.00
2019-05-03T02:05:48.285Z,0.00
2019-05-03T02:06:48.247Z,0.00
2019-05-03T02:07:48.675Z,0.00
2019-05-03T02:08:48.225Z,0.00
2019-05-03T02:09:48.254Z,0.00
2019-05-03T02:10:48.206Z,0.00
2019-05-03T02:11:48.266Z,0.00
2019-05-03T02:12:48.184Z,0.00
2019-05-03T02:13:48.175Z,0.00
2019-05-03T02:14:48.198Z,0.00
2019-05-03T02:15:48.194Z,0.00
2019-05-03T02:16:48.138Z,0.00
2019-05-03T02:17:48.134Z,0.00
2019-05-03T02:18:48.115Z,0.00
2019-05-03T02:19:48.148Z,0.00
2019-05-03T02:20:48.145Z,0.00
2019-05-03T02:21:48.080Z,0.00
2019-05-03T02:22:48.079Z,0.00
2019-05-03T02:23:48.070Z,0.00
2019-05-03T02:24:48.096Z,0.00
2019-05-03T02:25:56.098Z,0.00
2019-05-03T02:26:49.025Z,0.00
2019-05-03T02:27:48.016Z,0.00
2019-05-03T02:28:48.048Z,0.00
2019-05-03T02:29:48.002Z,0.00
2019-05-03T02:30:48.038Z,0.00
2019-05-03T02:31:47.972Z,0.00
2019-05-03T02:32:47.960Z,0.00
2019-05-03T02:33:47.949Z,0.00
2019-05-03T02:34:47.946Z,0.00
2019-05-03T02:35:47.934Z,0.00
2019-05-03T02:36:47.967Z,0.00
2019-05-03T02:37:47.911Z,0.00
2019-05-03T02:38:47.969Z,0.00
2019-05-03T02:39:47.883Z,0.00
2019-05-03T02:40:47.872Z,0.00
2019-05-03T02:41:49.558Z,0.00
2019-05-03T02:42:47.926Z,0.00
2019-05-03T02:43:47.889Z,0.00
2019-05-03T02:44:47.827Z,0.00
2019-05-03T02:45:47.816Z,0.00
2019-05-03T02:46:47.845Z,0.00
2019-05-03T02:47:47.794Z,0.00
2019-05-03T02:48:47.795Z,0.00
2019-05-03T02:49:47.774Z,0.00
2019-05-03T02:50:47.760Z,0.00
2019-05-03T02:51:47.748Z,0.00
2019-05-03T02:52:47.785Z,0.00
2019-05-03T02:53:47.750Z,0.00
2019-05-03T02:54:47.723Z,0.00
2019-05-03T02:55:47.768Z,0.00
2019-05-03T02:56:47.694Z,0.00
2019-05-03T02:57:47.681Z,0.00
2019-05-03T02:58:47.674Z,0.00
2019-05-03T02:59:49.810Z,0.00
2019-05-03T03:00:47.653Z,0.00
2019-05-03T03:01:48.056Z,0.00
2019-05-03T03:02:47.672Z,0.00
2019-05-03T03:03:47.618Z,0.00
2019-05-03T03:04:47.654Z,0.00
2019-05-03T03:05:47.643Z,0.00
2019-05-03T03:06:47.590Z,0.00
2019-05-03T03:07:47.619Z,0.00
2019-05-03T03:08:47.570Z,0.00
2019-05-03T03:09:47.556Z,0.00
2019-05-03T03:10:47.536Z,0.00
2019-05-03T03:11:47.529Z,0.00
2019-05-03T03:12:47.557Z,0.00
2019-05-03T03:13:47.505Z,0.00
2019-05-03T03:14:47.515Z,0.00
2019-05-03T03:15:47.532Z,0.00
2019-05-03T03:16:47.472Z,0.00
2019-05-03T03:17:47.463Z,0.00
2019-05-03T03:18:47.469Z,0.00
2019-05-03T03:19:47.440Z,0.00
2019-05-03T03:20:47.425Z,0.00
2019-05-03T03:21:47.479Z,0.00
2019-05-03T03:22:47.407Z,0.00
2019-05-03T03:23:47.401Z,0.00
2019-05-03T03:24:47.398Z,0.00
2019-05-03T03:25:47.370Z,0.00
2019-05-03T03:26:47.627Z,0.00
2019-05-03T03:27:47.402Z,0.00
2019-05-03T03:28:47.350Z,0.00
2019-05-03T03:29:47.329Z,0.00
2019-05-03T03:30:48.615Z,0.00
2019-05-03T03:31:48.125Z,0.00
2019-05-03T03:32:48.308Z,0.00
2019-05-03T03:33:47.789Z,0.00
2019-05-03T03:34:54.776Z,0.00
2019-05-03T03:35:49.111Z,0.00
2019-05-03T03:36:58.879Z,0.00
2019-05-03T03:37:48.289Z,0.00
2019-05-03T03:38:47.232Z,4.00
2019-05-03T03:39:47.286Z,4.00
2019-05-03T03:40:47.214Z,0.00
2019-05-03T03:41:47.200Z,4.00
2019-05-03T03:42:47.224Z,4.00
2019-05-03T03:43:47.174Z,8.00
2019-05-03T03:44:47.169Z,4.00
2019-05-03T03:45:47.149Z,4.00
2019-05-03T03:46:47.145Z,4.00
2019-05-03T03:47:47.131Z,4.00
2019-05-03T03:48:47.156Z,4.00
2019-05-03T03:49:47.152Z,8.00
2019-05-03T03:50:47.095Z,4.00
2019-05-03T03:51:47.136Z,8.00
2019-05-03T03:52:47.092Z,8.00
2019-05-03T03:53:47.065Z,8.00
2019-05-03T03:54:47.051Z,8.00
2019-05-03T03:55:47.040Z,8.00
2019-05-03T03:56:59.362Z,8.00
2019-05-03T03:57:48.055Z,12.00
2019-05-03T03:58:47.007Z,12.00
2019-05-03T03:59:47.015Z,16.00
2019-05-03T04:00:46.984Z,16.00
2019-05-03T04:01:46.977Z,16.00
2019-05-03T04:02:47.003Z,20.00
2019-05-03T04:03:46.959Z,16.00
2019-05-03T04:04:46.943Z,20.00
2019-05-03T04:05:47.000Z,24.00
2019-05-03T04:06:46.956Z,28.00
2019-05-03T04:07:46.911Z,32.00
2019-05-03T04:08:46.939Z,32.00
2019-05-03T04:09:46.937Z,32.00
2019-05-03T04:10:46.922Z,40.00
2019-05-03T04:11:46.859Z,52.00
2019-05-03T04:12:46.856Z,68.00
2019-05-03T04:13:46.838Z,84.00
2019-05-03T04:14:46.826Z,108.00
2019-05-03T04:15:46.817Z,136.00
2019-05-03T04:16:46.848Z,180.00
2019-05-03T04:17:46.799Z,220.00
2019-05-03T04:18:46.811Z,264.00
2019-05-03T04:19:46.827Z,316.00
2019-05-03T04:20:46.764Z,372.00
2019-05-03T04:21:46.748Z,428.00
2019-05-03T04:22:46.797Z,484.00
2019-05-03T04:23:46.733Z,540.00
2019-05-03T04:24:46.782Z,600.00
2019-05-03T04:25:46.761Z,648.00
2019-05-03T04:26:46.692Z,680.00
2019-05-03T04:27:46.689Z,688.00
2019-05-03T04:28:46.713Z,680.00
2019-05-03T04:29:46.661Z,676.00
2019-05-03T04:30:46.713Z,676.00
2019-05-03T04:31:46.638Z,676.00
2019-05-03T04:32:46.630Z,680.00
2019-05-03T04:33:46.633Z,676.00
2019-05-03T04:34:46.605Z,676.00
2019-05-03T04:35:46.724Z,684.00
2019-05-03T04:36:46.647Z,700.00
2019-05-03T04:37:46.634Z,712.00
2019-05-03T04:38:46.565Z,748.00
2019-05-03T04:39:46.549Z,792.00
2019-05-03T04:40:46.544Z,840.00
2019-05-03T04:41:46.530Z,916.00
2019-05-03T04:42:46.817Z,1000.00
2019-05-03T04:43:46.585Z,1060.00
2019-05-03T04:44:46.494Z,1108.00
2019-05-03T04:45:46.483Z,1148.00
2019-05-03T04:46:46.638Z,1212.00
2019-05-03T04:47:46.696Z,1308.00
2019-05-03T04:48:46.494Z,1400.00
2019-05-03T04:49:46.513Z,1484.00
2019-05-03T04:50:46.454Z,1564.00
2019-05-03T04:51:46.768Z,1644.00
2019-05-03T04:52:46.670Z,1692.00
2019-05-03T04:53:46.458Z,1700.00
2019-05-03T04:54:46.386Z,1732.00
2019-05-03T04:55:46.981Z,1752.00
2019-05-03T04:56:46.654Z,1788.00
2019-05-03T04:57:50.202Z,1820.00
2019-05-03T04:58:46.380Z,1876.00
2019-05-03T04:59:46.325Z,1968.00
2019-05-03T05:00:46.713Z,1972.00
2019-05-03T05:01:46.382Z,2016.00
2019-05-03T05:02:46.303Z,2092.00
2019-05-03T05:03:46.302Z,2192.00
2019-05-03T05:04:46.591Z,2324.00
2019-05-03T05:05:46.339Z,2480.00
2019-05-03T05:06:46.254Z,2608.00
2019-05-03T05:07:46.249Z,2704.00
2019-05-03T05:08:46.335Z,2804.00
2019-05-03T05:09:46.225Z,2848.00
2019-05-03T05:10:46.213Z,2828.00
2019-05-03T05:11:46.203Z,2796.00
2019-05-03T05:12:46.200Z,2892.00
2019-05-03T05:13:46.175Z,2980.00
2019-05-03T05:14:46.218Z,3004.00
2019-05-03T05:15:46.265Z,2992.00
2019-05-03T05:16:46.720Z,2948.00
2019-05-03T05:17:46.173Z,2908.00
2019-05-03T05:18:46.122Z,2924.00
2019-05-03T05:19:46.114Z,3056.00
2019-05-03T05:20:46.155Z,3228.00
2019-05-03T05:21:46.112Z,3376.00
2019-05-03T05:22:46.069Z,3396.00
2019-05-03T05:23:46.138Z,3304.00
2019-05-03T05:24:46.063Z,3212.00
2019-05-03T05:25:46.065Z,3108.00
2019-05-03T05:26:46.044Z,3016.00
2019-05-03T05:27:51.081Z,2988.00
2019-05-03T05:28:47.060Z,3080.00
2019-05-03T05:29:46.018Z,3272.00
2019-05-03T05:30:46.103Z,3512.00
2019-05-03T05:31:45.975Z,3752.00
2019-05-03T05:32:45.963Z,3944.00
2019-05-03T05:33:45.964Z,3988.00
2019-05-03T05:34:46.172Z,3796.00
2019-05-03T05:35:45.929Z,3676.00
2019-05-03T05:36:45.956Z,3576.00
2019-05-03T05:37:45.908Z,3544.00
2019-05-03T05:38:45.942Z,3564.00
2019-05-03T05:39:46.560Z,3624.00
2019-05-03T05:40:45.946Z,3648.00
2019-05-03T05:41:45.913Z,3712.00
2019-05-03T05:42:45.888Z,3788.00
2019-05-03T05:43:45.903Z,3840.00
2019-05-03T05:44:45.845Z,3920.00
2019-05-03T05:45:45.861Z,4060.00
2019-05-03T05:46:45.801Z,4168.00
2019-05-03T05:47:45.860Z,4248.00
2019-05-03T05:48:45.796Z,4296.00
2019-05-03T05:49:45.780Z,4172.00
2019-05-03T05:50:45.808Z,4184.00
2019-05-03T05:51:45.753Z,4256.00
2019-05-03T05:52:45.781Z,4380.00
2019-05-03T05:53:45.792Z,4560.00
2019-05-03T05:54:45.720Z,4756.00
2019-05-03T05:55:45.709Z,4936.00
2019-05-03T05:56:45.766Z,4908.00
2019-05-03T05:57:45.725Z,4768.00
2019-05-03T05:58:45.683Z,4608.00
2019-05-03T05:59:45.726Z,4484.00
2019-05-03T06:00:45.662Z,4508.00
2019-05-03T06:01:45.780Z,4528.00
2019-05-03T06:02:45.632Z,4572.00
2019-05-03T06:03:45.613Z,4676.00
2019-05-03T06:04:45.605Z,4732.00
2019-05-03T06:05:45.623Z,4840.00
2019-05-03T06:06:45.632Z,4760.00
2019-05-03T06:07:45.570Z,4580.00
2019-05-03T06:08:45.564Z,4424.00
2019-05-03T06:09:45.566Z,4388.00
2019-05-03T06:10:45.603Z,4452.00
2019-05-03T06:11:45.593Z,4420.00
2019-05-03T06:12:45.520Z,4368.00
2019-05-03T06:13:45.503Z,4292.00
2019-05-03T06:14:45.602Z,4168.00
2019-05-03T06:15:45.490Z,3948.00
2019-05-03T06:16:45.464Z,3800.00
2019-05-03T06:17:45.458Z,3868.00
2019-05-03T06:18:45.443Z,4052.00
2019-05-03T06:19:45.448Z,4128.00
2019-05-03T06:20:45.483Z,4072.00
2019-05-03T06:21:47.790Z,4024.00
2019-05-03T06:22:45.400Z,4108.00
2019-05-03T06:23:45.392Z,4276.00
2019-05-03T06:24:45.455Z,4452.00
2019-05-03T06:25:45.443Z,4400.00
2019-05-03T06:26:45.418Z,4184.00
2019-05-03T06:27:45.389Z,4416.00
2019-05-03T06:28:45.451Z,4792.00
2019-05-03T06:29:45.466Z,5196.00
2019-05-03T06:30:46.870Z,5536.00
2019-05-03T06:31:45.317Z,5736.00
2019-05-03T06:32:45.329Z,6132.00
2019-05-03T06:33:45.361Z,6188.00
2019-05-03T06:34:45.613Z,6220.00
2019-05-03T06:35:45.298Z,5684.00
2019-05-03T06:36:45.291Z,5176.00
2019-05-03T06:37:45.901Z,5412.00
2019-05-03T06:38:45.261Z,5724.00
2019-05-03T06:39:45.567Z,5668.00
2019-05-03T06:40:45.201Z,6180.00
2019-05-03T06:41:45.205Z,6528.00
2019-05-03T06:42:52.375Z,6712.00
2019-05-03T06:43:48.763Z,6772.00
2019-05-03T06:44:45.600Z,6760.00
2019-05-03T06:45:49.085Z,6764.00
2019-05-03T06:46:45.766Z,6464.00
2019-05-03T06:47:49.597Z,5368.00
2019-05-03T06:48:45.214Z,4488.00
2019-05-03T06:49:48.470Z,4224.00
2019-05-03T06:50:45.461Z,5080.00
2019-05-03T06:51:49.510Z,5972.00
2019-05-03T06:52:45.080Z,6236.00
2019-05-03T06:53:47.550Z,6400.00
2019-05-03T06:54:46.060Z,6724.00
2019-05-03T06:55:48.341Z,6540.00
2019-05-03T06:56:45.378Z,6392.00
2019-05-03T06:57:49.353Z,5872.00
2019-05-03T06:58:45.004Z,5860.00
2019-05-03T06:59:45.205Z,6200.00
2019-05-03T07:00:45.249Z,6380.00
2019-05-03T07:01:45.070Z,6456.00
2019-05-03T07:02:45.110Z,6684.00
2019-05-03T07:03:44.973Z,6972.00
2019-05-03T07:04:45.096Z,7108.00
2019-05-03T07:05:44.937Z,7016.00
2019-05-03T07:06:45.177Z,6684.00
2019-05-03T07:07:45.028Z,6556.00
2019-05-03T07:08:47.180Z,6608.00
2019-05-03T07:09:45.022Z,6876.00
2019-05-03T07:10:44.953Z,7416.00
2019-05-03T07:11:45.174Z,7504.00
2019-05-03T07:12:45.478Z,7408.00
2019-05-03T07:13:45.047Z,7624.00
2019-05-03T07:14:45.108Z,7724.00
2019-05-03T07:15:45.474Z,7788.00
2019-05-03T07:16:44.858Z,7484.00
2019-05-03T07:17:45.062Z,7136.00
2019-05-03T07:18:45.447Z,6980.00
2019-05-03T07:19:45.902Z,6920.00
2019-05-03T07:20:44.895Z,6568.00
2019-05-03T07:21:44.843Z,5812.00
2019-05-03T07:22:44.757Z,4960.00
2019-05-03T07:23:45.193Z,4832.00
2019-05-03T07:24:45.598Z,5408.00
2019-05-03T07:25:44.906Z,5608.00
2019-05-03T07:26:44.913Z,5168.00
2019-05-03T07:27:45.278Z,4476.00
2019-05-03T07:28:49.263Z,4268.00
2019-05-03T07:29:45.703Z,4188.00
2019-05-03T07:30:45.424Z,4324.00
2019-05-03T07:31:44.800Z,4944.00
2019-05-03T07:32:44.891Z,5620.00
2019-05-03T07:33:44.757Z,6520.00
2019-05-03T07:34:45.277Z,7528.00
2019-05-03T07:35:44.571Z,7304.00
2019-05-03T07:36:44.812Z,6992.00
2019-05-03T07:37:45.134Z,6972.00
2019-05-03T07:38:45.393Z,7612.00
2019-05-03T07:39:45.257Z,7692.00
2019-05-03T07:40:44.672Z,7456.00
2019-05-03T07:41:44.730Z,7508.00
2019-05-03T07:42:45.050Z,7700.00
2019-05-03T07:43:45.059Z,7464.00
2019-05-03T07:44:44.934Z,6768.00
2019-05-03T07:45:44.726Z,6564.00
2019-05-03T07:46:45.143Z,6676.00
2019-05-03T07:47:45.223Z,6468.00
2019-05-03T07:48:45.658Z,6508.00
2019-05-03T07:49:44.853Z,7180.00
2019-05-03T07:50:45.117Z,8036.00
2019-05-03T07:51:44.893Z,8768.00
2019-05-03T07:52:45.096Z,8288.00
2019-05-03T07:53:45.158Z,7304.00
2019-05-03T07:54:45.137Z,7180.00
2019-05-03T07:55:45.734Z,7744.00
2019-05-03T07:56:44.630Z,7664.00
2019-05-03T07:57:45.269Z,8236.00
2019-05-03T07:58:48.893Z,8696.00
2019-05-03T07:59:45.593Z,8596.00
2019-05-03T08:00:44.690Z,7804.00
2019-05-03T08:01:45.547Z,7036.00
2019-05-03T08:02:44.707Z,6328.00
2019-05-03T08:03:45.124Z,5364.00
2019-05-03T08:04:44.525Z,4608.00
2019-05-03T08:05:45.492Z,4008.00
2019-05-03T08:06:44.645Z,3556.00
2019-05-03T08:07:46.183Z,3444.00
2019-05-03T08:08:45.434Z,3616.00
2019-05-03T08:09:45.284Z,3908.00
2019-05-03T08:10:45.064Z,4056.00
2019-05-03T08:11:44.481Z,4108.00
2019-05-03T08:12:45.224Z,4312.00
2019-05-03T08:13:44.661Z,5232.00
2019-05-03T08:14:44.689Z,6700.00
2019-05-03T08:15:45.210Z,7248.00
2019-05-03T08:16:45.646Z,7352.00
2019-05-03T08:17:45.005Z,7368.00
2019-05-03T08:18:45.687Z,7776.00
2019-05-03T08:19:44.725Z,8204.00
2019-05-03T08:20:45.158Z,8236.00
2019-05-03T08:21:45.301Z,8720.00
2019-05-03T08:22:45.064Z,9476.00
2019-05-03T08:23:45.318Z,9684.00
2019-05-03T08:24:44.818Z,10096.00
2019-05-03T08:25:44.676Z,10068.00
2019-05-03T08:26:45.331Z,10204.00
2019-05-03T08:27:45.285Z,10640.00
2019-05-03T08:28:45.177Z,10932.00
2019-05-03T08:29:45.451Z,11012.00
2019-05-03T08:30:44.922Z,11032.00
2019-05-03T08:31:45.430Z,11204.00
2019-05-03T08:32:44.808Z,10888.00
2019-05-03T08:33:44.990Z,10640.00
2019-05-03T08:34:45.296Z,10408.00
2019-05-03T08:35:44.853Z,9380.00
2019-05-03T08:36:45.201Z,9100.00
2019-05-03T08:37:45.363Z,9440.00
2019-05-03T08:38:45.831Z,10012.00
2019-05-03T08:39:45.442Z,10124.00
2019-05-03T08:40:45.590Z,10572.00
2019-05-03T08:41:45.328Z,11948.00
2019-05-03T08:42:45.527Z,12752.00
2019-05-03T08:43:45.260Z,12068.00
2019-05-03T08:44:45.361Z,11464.00
2019-05-03T08:45:44.714Z,11396.00
2019-05-03T08:46:47.233Z,11504.00
2019-05-03T08:47:45.036Z,10996.00
2019-05-03T08:48:45.634Z,10596.00
2019-05-03T08:49:45.209Z,9816.00
2019-05-03T08:50:45.058Z,8400.00
2019-05-03T08:51:45.198Z,7896.00
2019-05-03T08:52:45.198Z,8020.00
2019-05-03T08:53:45.915Z,8332.00
2019-05-03T08:54:44.857Z,8928.00
2019-05-03T08:55:44.950Z,10156.00
2019-05-03T08:56:45.148Z,11188.00
2019-05-03T08:57:44.779Z,11128.00
2019-05-03T08:58:45.118Z,10136.00
2019-05-03T08:59:44.608Z,9568.00
2019-05-03T09:00:45.471Z,8772.00
2019-05-03T09:01:45.425Z,7308.00
2019-05-03T09:02:44.718Z,6196.00
2019-05-03T09:03:45.612Z,5792.00
2019-05-03T09:04:45.929Z,5908.00
2019-05-03T09:05:45.852Z,6488.00
2019-05-03T09:06:44.644Z,7260.00
2019-05-03T09:07:44.729Z,7896.00
2019-05-03T09:08:45.633Z,7912.00
2019-05-03T09:09:43.508Z,7880.00
2019-05-03T09:10:45.971Z,8200.00
2019-05-03T09:11:45.396Z,8652.00
2019-05-03T09:12:44.908Z,8812.00
2019-05-03T09:13:44.994Z,9176.00
2019-05-03T09:14:46.437Z,9896.00
2019-05-03T09:15:44.581Z,10668.00
2019-05-03T09:16:44.768Z,11496.00
2019-05-03T09:17:44.612Z,11884.00
2019-05-03T09:18:45.283Z,11932.00
2019-05-03T09:19:45.245Z,12380.00
2019-05-03T09:20:44.840Z,12740.00
2019-05-03T09:21:45.285Z,12964.00
2019-05-03T09:22:45.337Z,12916.00
2019-05-03T09:23:45.103Z,12716.00
2019-05-03T09:24:45.377Z,13336.00
2019-05-03T09:25:45.674Z,13804.00
2019-05-03T09:26:44.926Z,14132.00
2019-05-03T09:27:44.649Z,14556.00
2019-05-03T09:28:45.242Z,13548.00
2019-05-03T09:29:45.935Z,13360.00
2019-05-03T09:30:44.713Z,13876.00
2019-05-03T09:31:44.697Z,13808.00
2019-05-03T09:32:44.787Z,13696.00
2019-05-03T09:33:45.160Z,13316.00
2019-05-03T09:34:44.487Z,12488.00
2019-05-03T09:35:45.128Z,11912.00
2019-05-03T09:36:44.839Z,12044.00
2019-05-03T09:37:44.941Z,12500.00
2019-05-03T09:38:45.592Z,13008.00
2019-05-03T09:39:44.570Z,13432.00
2019-05-03T09:40:44.834Z,13192.00
2019-05-03T09:41:45.003Z,13472.00
2019-05-03T09:42:44.518Z,13384.00
2019-05-03T09:43:45.090Z,13100.00
2019-05-03T09:44:45.080Z,12708.00
2019-05-03T09:45:45.165Z,12740.00
2019-05-03T09:46:44.655Z,12404.00
2019-05-03T09:47:44.746Z,12664.00
2019-05-03T09:48:45.130Z,12796.00
2019-05-03T09:49:45.242Z,12960.00
2019-05-03T09:50:44.951Z,13452.00
2019-05-03T09:51:44.444Z,14044.00
2019-05-03T09:52:46.867Z,14328.00
2019-05-03T09:53:44.625Z,14396.00
2019-05-03T09:54:45.179Z,13964.00
2019-05-03T09:55:44.837Z,13216.00
2019-05-03T09:56:53.762Z,12768.00
2019-05-03T09:57:44.516Z,12824.00
2019-05-03T09:58:42.960Z,12464.00
2019-05-03T09:59:55.753Z,12404.00
2019-05-03T10:00:44.652Z,12412.00
2019-05-03T10:01:45.445Z,12564.00
2019-05-03T10:02:44.921Z,13356.00
2019-05-03T10:03:45.129Z,13812.00
2019-05-03T10:04:44.637Z,13328.00
2019-05-03T10:05:59.667Z,11856.00
2019-05-03T10:07:01.905Z,11588.00
2019-05-03T10:07:45.580Z,11568.00
2019-05-03T10:08:45.234Z,11800.00
2019-05-03T10:09:45.032Z,11380.00
2019-05-03T10:10:43.748Z,10208.00
2019-05-03T10:11:45.552Z,10228.00
2019-05-03T10:12:43.017Z,9748.00
2019-05-03T10:13:42.808Z,8152.00
2019-05-03T10:14:42.777Z,8140.00
2019-05-03T10:15:45.011Z,8528.00
2019-05-03T10:16:44.904Z,8896.00
2019-05-03T10:17:43.179Z,9548.00
2019-05-03T10:18:45.686Z,10448.00
2019-05-03T10:19:45.042Z,11424.00
2019-05-03T10:20:44.497Z,12172.00
2019-05-03T10:21:44.781Z,12780.00
2019-05-03T10:22:42.742Z,12676.00
2019-05-03T10:23:44.918Z,12428.00
2019-05-03T10:24:42.774Z,12372.00
2019-05-03T10:25:42.697Z,12104.00
2019-05-03T10:26:42.636Z,13168.00
2019-05-03T10:27:42.706Z,12188.00
2019-05-03T10:28:42.633Z,12168.00
2019-05-03T10:29:44.599Z,12676.00
2019-05-03T10:30:44.933Z,11484.00
2019-05-03T10:31:44.840Z,10756.00
2019-05-03T10:32:44.831Z,10020.00
2019-05-03T10:33:44.832Z,9724.00
2019-05-03T10:34:43.746Z,9864.00
2019-05-03T10:35:44.981Z,10232.00
2019-05-03T10:36:43.190Z,11332.00
2019-05-03T10:37:45.328Z,12192.00
2019-05-03T10:38:42.810Z,13800.00
2019-05-03T10:39:42.564Z,13360.00
2019-05-03T10:40:45.095Z,13376.00
2019-05-03T10:41:45.204Z,13800.00
2019-05-03T10:42:44.520Z,13708.00
2019-05-03T10:43:44.904Z,12196.00
2019-05-03T10:44:44.778Z,11440.00
2019-05-03T10:45:44.864Z,11020.00
2019-05-03T10:46:42.666Z,10256.00
2019-05-03T10:47:42.645Z,9472.00
2019-05-03T10:48:44.866Z,9516.00
2019-05-03T10:49:43.163Z,9992.00
2019-05-03T10:50:44.581Z,11112.00
2019-05-03T10:51:42.407Z,12068.00
2019-05-03T10:52:44.625Z,12688.00
2019-05-03T10:53:42.761Z,13824.00
2019-05-03T10:54:45.867Z,15744.00
2019-05-03T10:55:45.098Z,15956.00
2019-05-03T10:56:45.081Z,15880.00
2019-05-03T10:57:44.986Z,15436.00
2019-05-03T10:58:42.432Z,14572.00
2019-05-03T10:59:44.883Z,12424.00
2019-05-03T11:00:50.350Z,12152.00
2019-05-03T11:01:45.269Z,12244.00
2019-05-03T11:02:45.351Z,13316.00
2019-05-03T11:03:42.621Z,13492.00
2019-05-03T11:04:44.228Z,13848.00
2019-05-03T11:05:42.925Z,13680.00
2019-05-03T11:06:45.759Z,14028.00
2019-05-03T11:07:45.163Z,13812.00
2019-05-03T11:08:45.122Z,14400.00
2019-05-03T11:09:49.754Z,14644.00
2019-05-03T11:10:45.067Z,15172.00
2019-05-03T11:11:45.205Z,13080.00
2019-05-03T11:12:44.171Z,13440.00
2019-05-03T11:13:43.426Z,15492.00
2019-05-03T11:14:45.402Z,16448.00
2019-05-03T11:15:44.465Z,14852.00
2019-05-03T11:16:45.792Z,14064.00
2019-05-03T11:17:45.365Z,13124.00
2019-05-03T11:18:42.407Z,11948.00
2019-05-03T11:19:45.397Z,13040.00
2019-05-03T11:20:45.254Z,11272.00
2019-05-03T11:21:42.104Z,11096.00
2019-05-03T11:22:42.046Z,8560.00
2019-05-03T11:23:42.054Z,8584.00
2019-05-03T11:24:42.119Z,9012.00
2019-05-03T11:25:42.155Z,9528.00
2019-05-03T11:26:45.457Z,10260.00
2019-05-03T11:27:42.013Z,11448.00
2019-05-03T11:28:42.073Z,12444.00
2019-05-03T11:29:44.867Z,13628.00
2019-05-03T11:30:53.567Z,14732.00
2019-05-03T11:31:44.575Z,15216.00
2019-05-03T11:32:44.738Z,13052.00
2019-05-03T11:33:42.283Z,14492.00
2019-05-03T11:34:46.464Z,13768.00
2019-05-03T11:35:44.635Z,11008.00
2019-05-03T11:36:42.265Z,10996.00
2019-05-03T11:37:41.881Z,12344.00
2019-05-03T11:38:41.966Z,13148.00
2019-05-03T11:39:45.093Z,13224.00
2019-05-03T11:40:45.394Z,13560.00
2019-05-03T11:41:44.963Z,13716.00
2019-05-03T11:42:44.756Z,13540.00
2019-05-03T11:43:44.253Z,12900.00
2019-05-03T11:44:41.888Z,15128.00
2019-05-03T11:45:44.784Z,11468.00
2019-05-03T11:46:44.517Z,11920.00
2019-05-03T11:47:42.417Z,13072.00
2019-05-03T11:48:42.208Z,9512.00
2019-05-03T11:49:45.186Z,10340.00
2019-05-03T11:50:42.249Z,10568.00
2019-05-03T11:51:44.615Z,10668.00
2019-05-03T11:52:42.790Z,11976.00
2019-05-03T11:53:44.923Z,10036.00
2019-05-03T11:54:41.730Z,13956.00
2019-05-03T11:55:41.661Z,14232.00
2019-05-03T11:56:41.649Z,11324.00
2019-05-03T11:57:41.657Z,15228.00
2019-05-03T11:58:41.623Z,11916.00
2019-05-03T11:59:41.599Z,11952.00
2019-05-03T12:00:41.703Z,15436.00
2019-05-03T12:01:41.620Z,14780.00
2019-05-03T12:02:44.619Z,14144.00
2019-05-03T12:03:41.597Z,11048.00
2019-05-03T12:04:42.255Z,10256.00
2019-05-03T12:05:41.534Z,14472.00
2019-05-03T12:06:41.566Z,14608.00
2019-05-03T12:07:41.505Z,14680.00
2019-05-03T12:08:41.492Z,14684.00
2019-05-03T12:09:41.535Z,14932.00
2019-05-03T12:10:52.512Z,14944.00
2019-05-03T12:11:42.460Z,14572.00
2019-05-03T12:12:41.447Z,14564.00
2019-05-03T12:13:41.494Z,10396.00
2019-05-03T12:14:41.429Z,11112.00
2019-05-03T12:15:41.471Z,11776.00
2019-05-03T12:17:12.215Z,16304.00
2019-05-03T12:17:51.994Z,10556.00
2019-05-03T12:18:52.021Z,10244.00
2019-05-03T12:19:43.881Z,14640.00
2019-05-03T12:20:42.313Z,15600.00
2019-05-03T12:21:41.941Z,16064.00
2019-05-03T12:22:56.853Z,17056.00
2019-05-03T12:23:45.283Z,17664.00